Saint Louis, Missouri
Traffic Map
Current Weather Conditions
Saint Louis, Missouri
Clear
Clear
21°
Feels Like: 21°
Wind Chill: 21° Ceiling: Unl
Heat Index: 21° Visibility: 7mi
Dew Point: 19° Wind: 0mph
Humidity: 90% Direction: ° ()
Pressure: 29.99in Gusts: 0mph
Raw Report DataKCPS 030953Z AUTO 00000KT 7SM CLR 21/19 A2999 RMK AO2 SLP152 T02110194
Traffic Incident Summary
Active as of:
Severity:
Category:
InformationThere was an issue retrieving the traffic information for this location. Please try a different location or try again shortly.
Advertisements
Track Severe Weather on mobile